Time;durP1;ratioP1;P1;durP2;ratioP2;P2;SDS_P1;SDS_P2;PMS_P1;PMS_P2;Temp;Humidity;BMP_temperature;BMP_pressure;BME280_temperature;BME280_humidity;BME280_pressure;Samples;Min_cycle;Max_cycle;Signal;HPM_P1;HPM_P2
2020/12/26 00:01:41;;;;;;;1999.90;999.90;;;-1.10;99.90;;;;;;5000653;28;20251;-48
2020/12/26 00:04:06;;;;;;;1999.90;999.90;;;-1.10;99.90;;;;;;4993755;28;20208;-48
2020/12/26 00:06:32;;;;;;;1999.90;999.90;;;-1.10;99.90;;;;;;5002243;28;20188;-48
2020/12/26 00:08:57;;;;;;;1999.90;999.90;;;-1.00;99.90;;;;;;5007022;28;20588;-48
2020/12/26 00:11:23;;;;;;;1999.90;999.90;;;-1.00;99.90;;;;;;5004526;28;20561;-48
2020/12/26 00:13:49;;;;;;;1999.90;999.90;;;-1.00;99.90;;;;;;5010375;28;20194;-48
2020/12/26 00:16:15;;;;;;;1999.90;999.90;;;-0.90;99.90;;;;;;4994589;28;20197;-46
2020/12/26 00:18:45;;;;;;;1999.90;999.90;;;-0.90;99.90;;;;;;4993411;28;20436;-49
2020/12/26 15:30:41;;;;;;;1999.90;999.90;;;-0.50;99.90;;;;;;5046873;28;20567;-47
2020/12/26 15:33:07;;;;;;;1999.90;999.90;;;-0.50;99.90;;;;;;5045126;28;20417;-48
2020/12/26 15:35:35;;;;;;;1999.90;999.90;;;-0.50;99.90;;;;;;5047946;28;20202;-48
2020/12/26 15:38:02;;;;;;;1999.90;999.90;;;-0.40;99.90;;;;;;5044977;28;20713;-48
2020/12/26 15:40:28;;;;;;;1999.90;999.90;;;-0.40;99.90;;;;;;5044944;28;20448;-48
2020/12/26 15:42:54;;;;;;;1999.90;999.90;;;-0.40;99.90;;;;;;5044434;28;20433;-48
2020/12/26 15:45:19;;;;;;;1999.90;999.90;;;-0.40;99.90;;;;;;5046236;28;20661;-48
2020/12/26 15:47:45;;;;;;;1999.90;999.90;;;-0.30;99.90;;;;;;5044539;28;20512;-49
2020/12/26 15:50:11;;;;;;;1999.90;999.90;;;-0.30;99.90;;;;;;5045373;28;20230;-48
2020/12/26 15:52:37;;;;;;;1999.90;999.90;;;-0.30;99.90;;;;;;5045296;28;20545;-48
2020/12/26 15:55:02;;;;;;;1999.90;999.90;;;-0.20;99.90;;;;;;5045643;28;20678;-48
2020/12/26 15:57:28;;;;;;;1999.90;999.90;;;-0.20;99.90;;;;;;5045036;28;20191;-48
2020/12/26 15:59:54;;;;;;;1999.90;999.90;;;-0.20;99.90;;;;;;5042682;28;20289;-48
2020/12/26 16:02:19;;;;;;;1999.90;999.90;;;-0.20;99.90;;;;;;5044659;28;20191;-48
2020/12/26 16:04:45;;;;;;;1999.90;999.90;;;-0.30;99.90;;;;;;5045595;28;20286;-48
2020/12/26 16:07:10;;;;;;;1999.90;999.90;;;-0.30;99.90;;;;;;5046187;28;20667;-48
2020/12/26 16:09:42;;;;;;;1999.90;999.90;;;-0.30;99.90;;;;;;5045359;28;20218;-48
2020/12/26 16:12:11;;;;;;;1999.90;999.90;;;-0.40;99.90;;;;;;5044092;28;20179;-48
2020/12/26 16:14:37;;;;;;;1999.90;999.90;;;-0.40;99.90;;;;;;5047165;28;20425;-48
2020/12/26 16:17:03;;;;;;;1999.90;999.90;;;-0.40;99.90;;;;;;5045685;28;20447;-48
2020/12/26 16:19:28;;;;;;;1999.90;999.90;;;-0.40;99.90;;;;;;5048868;28;20479;-48
2020/12/26 16:21:54;;;;;;;1999.90;999.90;;;-0.40;99.90;;;;;;5044868;28;20187;-49
2020/12/26 16:24:20;;;;;;;1999.90;999.90;;;-0.40;99.90;;;;;;5051505;28;20532;-48
2020/12/26 16:26:45;;;;;;;1999.90;999.90;;;-0.40;99.90;;;;;;5053637;28;20195;-48
2020/12/26 16:29:11;;;;;;;1999.90;999.90;;;-0.40;99.90;;;;;;5056816;28;20332;-48
2020/12/26 16:31:40;;;;;;;1999.90;999.90;;;-0.40;99.90;;;;;;5059303;28;20179;-48
2020/12/26 16:34:06;;;;;;;1999.90;999.90;;;-0.30;99.90;;;;;;5043669;28;20203;-48
2020/12/26 16:36:32;;;;;;;1999.90;999.90;;;-0.40;99.90;;;;;;5047470;28;20449;-48
2020/12/26 16:38:58;;;;;;;1999.90;999.90;;;-0.50;99.90;;;;;;5053702;28;20248;-48
2020/12/26 16:41:30;;;;;;;1999.90;999.90;;;-0.50;99.90;;;;;;5044342;28;20469;-48
2020/12/26 16:43:55;;;;;;;1999.90;999.90;;;-0.40;99.90;;;;;;5035837;28;20513;-48
2020/12/26 16:46:25;;;;;;;1999.90;999.90;;;-0.30;99.90;;;;;;5050150;28;20436;-48
2020/12/26 16:48:50;;;;;;;1999.90;999.90;;;-0.30;99.90;;;;;;5032452;28;20310;-48
2020/12/26 16:51:22;;;;;;;1999.90;999.90;;;-0.20;99.90;;;;;;5032322;28;20516;-49
2020/12/26 16:53:48;;;;;;;1999.90;999.90;;;-0.10;99.90;;;;;;5027017;28;20179;-48
2020/12/26 16:56:19;;;;;;;1999.90;999.90;;;-0.10;99.90;;;;;;5034659;28;20578;-48
2020/12/26 16:58:45;;;;;;;1999.90;999.90;;;-0.10;99.90;;;;;;5050060;28;20465;-48
2020/12/26 17:01:21;;;;;;;1999.90;999.90;;;-0.10;99.90;;;;;;5032097;28;20525;-48
2020/12/26 17:03:48;;;;;;;1999.90;999.90;;;0.00;99.90;;;;;;5037967;28;20433;-48
2020/12/26 17:06:14;;;;;;;1999.90;999.90;;;-0.10;99.90;;;;;;5032359;28;20409;-48
2020/12/26 17:08:41;;;;;;;1999.90;999.90;;;0.00;99.90;;;;;;5030639;28;20474;-48
2020/12/26 17:11:07;;;;;;;1999.90;999.90;;;0.00;99.90;;;;;;5034662;28;20453;-48
2020/12/26 17:13:32;;;;;;;1999.90;999.90;;;0.00;99.90;;;;;;5032033;28;20918;-48
2020/12/26 17:15:58;;;;;;;1999.90;999.90;;;0.00;99.90;;;;;;5031497;28;20433;-48
2020/12/26 17:18:24;;;;;;;1999.90;999.90;;;0.00;99.90;;;;;;5036009;28;20209;-48
2020/12/26 17:20:49;;;;;;;1999.90;999.90;;;0.00;99.90;;;;;;5050164;28;20554;-48
2020/12/26 17:23:15;;;;;;;1999.90;999.90;;;0.00;99.90;;;;;;5051422;28;20210;-48
2020/12/26 17:25:40;;;;;;;1999.90;999.90;;;0.00;99.90;;;;;;5030111;28;20190;-49
2020/12/26 17:28:07;;;;;;;1999.90;999.90;;;0.00;99.90;;;;;;5036724;28;20773;-48
2020/12/26 17:30:32;;;;;;;1999.90;999.90;;;0.00;99.90;;;;;;5047007;28;20227;-48
2020/12/26 17:32:58;;;;;;;1999.90;999.90;;;0.10;99.90;;;;;;5041254;28;20464;-48
2020/12/26 17:35:24;;;;;;;1999.90;999.90;;;0.10;99.90;;;;;;5044957;28;20332;-48
2020/12/26 17:37:50;;;;;;;1999.90;999.90;;;0.10;99.90;;;;;;5043214;28;20456;-48
2020/12/26 17:40:15;;;;;;;1999.90;999.90;;;0.10;99.90;;;;;;5032093;28;20218;-48
2020/12/26 17:42:41;;;;;;;1999.90;999.90;;;0.10;99.90;;;;;;5030915;28;20252;-48
2020/12/26 17:45:07;;;;;;;1999.90;999.90;;;0.20;99.90;;;;;;5033212;28;20211;-48
2020/12/26 17:47:36;;;;;;;1999.90;999.90;;;0.20;99.90;;;;;;5030953;28;20175;-48
2020/12/26 17:50:06;;;;;;;1999.90;999.90;;;0.10;99.90;;;;;;5041679;28;20203;-48
2020/12/26 17:52:36;;;;;;;1999.90;999.90;;;0.20;99.90;;;;;;5027124;28;20548;-48
2020/12/26 17:55:06;;;;;;;1999.90;999.90;;;0.10;99.90;;;;;;5030927;28;20418;-48
2020/12/26 17:57:33;;;;;;;1999.90;999.90;;;0.10;99.90;;;;;;5012153;28;20468;-48
2020/12/26 17:59:59;;;;;;;1999.90;999.90;;;0.10;99.90;;;;;;5030920;28;20484;-48
2020/12/26 18:02:24;;;;;;;1999.90;999.90;;;0.10;99.90;;;;;;5045396;28;20524;-48
2020/12/26 18:04:50;;;;;;;1999.90;999.90;;;0.10;99.90;;;;;;5029654;28;20521;-48
2020/12/26 18:07:16;;;;;;;1999.90;999.90;;;0.10;99.90;;;;;;5041492;28;20199;-48
2020/12/26 18:09:42;;;;;;;1999.90;999.90;;;0.00;99.90;;;;;;5032207;28;20265;-48
2020/12/26 18:12:07;;;;;;;1999.90;999.90;;;-0.10;99.90;;;;;;5030388;28;20187;-48
2020/12/26 18:14:33;;;;;;;1999.90;999.90;;;0.00;99.90;;;;;;5032958;28;20662;-48
2020/12/26 18:16:59;;;;;;;1999.90;999.90;;;0.00;99.90;;;;;;5033804;28;20666;-48
2020/12/26 18:19:24;;;;;;;1999.90;999.90;;;0.00;99.90;;;;;;5029201;28;20297;-48
2020/12/26 18:21:50;;;;;;;1999.90;999.90;;;0.00;99.90;;;;;;5029380;28;20637;-48
2020/12/26 18:24:16;;;;;;;1999.90;999.90;;;0.00;99.90;;;;;;5035460;28;20195;-48
2020/12/26 18:26:42;;;;;;;1999.90;999.90;;;0.10;99.90;;;;;;5026585;28;20468;-48
2020/12/26 18:29:08;;;;;;;1999.90;999.90;;;0.10;99.90;;;;;;5021180;28;20506;-48
2020/12/26 18:31:35;;;;;;;1999.90;999.90;;;0.10;99.90;;;;;;5026955;28;20198;-47
2020/12/26 18:34:01;;;;;;;1999.90;999.90;;;0.20;99.90;;;;;;5029830;28;20178;-48
2020/12/26 18:36:27;;;;;;;1999.90;999.90;;;0.20;99.90;;;;;;5029621;28;20438;-48
2020/12/26 18:38:53;;;;;;;1999.90;999.90;;;0.10;99.90;;;;;;5027245;28;20492;-48
2020/12/26 18:41:23;;;;;;;1999.90;999.90;;;0.10;99.90;;;;;;5030039;28;20183;-48
2020/12/26 18:43:49;;;;;;;1999.90;999.90;;;0.10;99.90;;;;;;5028176;28;20186;-48
2020/12/26 18:46:15;;;;;;;1999.90;999.90;;;0.10;99.90;;;;;;5029218;28;21213;-48
2020/12/26 18:48:41;;;;;;;1999.90;999.90;;;0.10;99.90;;;;;;5027818;28;20473;-48
2020/12/26 18:51:10;;;;;;;1999.90;999.90;;;0.10;99.90;;;;;;5027330;28;20476;-48
2020/12/26 18:53:36;;;;;;;1999.90;999.90;;;0.10;99.90;;;;;;5029994;28;20210;-48
2020/12/26 18:56:02;;;;;;;1999.90;999.90;;;0.10;99.90;;;;;;5026748;28;20988;-48
2020/12/26 18:58:28;;;;;;;1999.90;999.90;;;0.10;99.90;;;;;;5028546;28;20497;-48
2020/12/26 19:00:54;;;;;;;1999.90;999.90;;;0.10;99.90;;;;;;5027507;28;20484;-48
2020/12/26 19:03:19;;;;;;;1999.90;999.90;;;0.10;99.90;;;;;;5028214;28;20187;-48
2020/12/26 19:05:45;;;;;;;1999.90;999.90;;;0.10;99.90;;;;;;5024331;28;20214;-48
2020/12/26 19:08:11;;;;;;;1999.90;999.90;;;0.10;99.90;;;;;;5022963;28;20203;-48
2020/12/26 19:10:36;;;;;;;1999.90;999.90;;;0.00;99.90;;;;;;5028084;28;20647;-48
2020/12/26 19:13:02;;;;;;;1999.90;999.90;;;0.00;99.90;;;;;;5029913;28;20648;-48
2020/12/26 19:15:27;;;;;;;1999.90;999.90;;;0.00;99.90;;;;;;5029427;28;20214;-48
2020/12/26 19:17:55;;;;;;;1999.90;999.90;;;-0.10;99.90;;;;;;5029029;28;20175;-48
2020/12/26 19:20:21;;;;;;;1999.90;999.90;;;-0.10;99.90;;;;;;5027494;28;20207;-48
2020/12/26 19:22:46;;;;;;;1999.90;999.90;;;-0.20;99.90;;;;;;5028727;28;20992;-47
2020/12/26 19:25:12;;;;;;;1999.90;999.90;;;-0.20;99.90;;;;;;5029596;28;20191;-48
2020/12/26 19:27:38;;;;;;;1999.90;999.90;;;-0.20;99.90;;;;;;5029783;28;20187;-48
2020/12/26 19:30:06;;;;;;;1999.90;999.90;;;-0.30;99.90;;;;;;5031161;28;20218;-48
2020/12/26 19:32:33;;;;;;;1999.90;999.90;;;-0.20;99.90;;;;;;5042058;28;20873;-48
2020/12/26 19:34:59;;;;;;;1999.90;999.90;;;-0.20;99.90;;;;;;5046890;28;20436;-47
2020/12/26 19:37:25;;;;;;;1999.90;999.90;;;-0.20;99.90;;;;;;5037726;28;20488;-49
2020/12/26 19:39:50;;;;;;;1999.90;999.90;;;-0.20;99.90;;;;;;5031142;28;20885;-48
2020/12/26 19:42:16;;;;;;;1999.90;999.90;;;-0.20;99.90;;;;;;5032022;28;20709;-50
2020/12/26 19:44:42;;;;;;;1999.90;999.90;;;-0.10;99.90;;;;;;5023094;28;20191;-48
2020/12/26 19:47:08;;;;;;;1999.90;999.90;;;-0.10;99.90;;;;;;5029834;28;20187;-48
2020/12/26 19:49:34;;;;;;;1999.90;999.90;;;0.00;99.90;;;;;;5031489;28;20481;-48
2020/12/26 19:52:02;;;;;;;1999.90;999.90;;;0.00;99.90;;;;;;5028107;28;20191;-48
2020/12/26 19:54:29;;;;;;;1999.90;999.90;;;0.00;99.90;;;;;;5029655;28;20429;-48
2020/12/26 19:56:55;;;;;;;1999.90;999.90;;;0.00;99.90;;;;;;5028723;28;20437;-48
2020/12/26 19:59:21;;;;;;;1999.90;999.90;;;0.00;99.90;;;;;;5028750;28;21209;-49
2020/12/26 20:01:47;;;;;;;1999.90;999.90;;;0.00;99.90;;;;;;5028324;28;20529;-47
2020/12/26 20:04:13;;;;;;;1999.90;999.90;;;0.00;99.90;;;;;;5030908;28;20512;-48
2020/12/26 20:06:39;;;;;;;1999.90;999.90;;;0.00;99.90;;;;;;5029191;28;20191;-48
2020/12/26 20:09:05;;;;;;;1999.90;999.90;;;0.00;99.90;;;;;;5028372;28;20473;-48
2020/12/26 20:11:30;;;;;;;1999.90;999.90;;;-0.10;99.90;;;;;;5031142;28;20190;-47
2020/12/26 20:13:56;;;;;;;1999.90;999.90;;;-0.10;99.90;;;;;;5029676;28;20221;-48
2020/12/26 20:16:22;;;;;;;1999.90;999.90;;;-0.10;99.90;;;;;;5031484;28;20636;-48
2020/12/26 20:18:48;;;;;;;1999.90;999.90;;;-0.10;99.90;;;;;;5029763;28;20461;-47
2020/12/26 20:21:14;;;;;;;1999.90;999.90;;;0.00;99.90;;;;;;5027748;28;20206;-48
2020/12/26 20:23:41;;;;;;;1999.90;999.90;;;0.00;99.90;;;;;;5029541;28;20798;-49
2020/12/26 20:26:07;;;;;;;1999.90;999.90;;;0.00;99.90;;;;;;5031961;28;20179;-48
2020/12/26 20:28:33;;;;;;;1999.90;999.90;;;0.00;99.90;;;;;;5032278;28;20453;-48
2020/12/26 20:31:09;;;;;;;1999.90;999.90;;;0.00;99.90;;;;;;5027803;28;20434;-48
2020/12/26 20:33:35;;;;;;;1999.90;999.90;;;0.00;99.90;;;;;;5032728;28;20189;-49
2020/12/26 20:36:09;;;;;;;1999.90;999.90;;;0.00;99.90;;;;;;5024919;28;20428;-48
2020/12/26 20:38:34;;;;;;;1999.90;999.90;;;0.00;99.90;;;;;;5030096;28;20449;-49
2020/12/26 20:41:00;;;;;;;1999.90;999.90;;;0.00;99.90;;;;;;5029481;28;20413;-48
2020/12/26 20:43:29;;;;;;;1999.90;999.90;;;0.00;99.90;;;;;;5028384;28;20221;-48
2020/12/26 20:45:55;;;;;;;1999.90;999.90;;;0.00;99.90;;;;;;5027159;28;20445;-48
2020/12/26 20:48:21;;;;;;;1999.90;999.90;;;-0.10;99.90;;;;;;5027331;28;20458;-48
2020/12/26 20:50:46;;;;;;;1999.90;999.90;;;0.00;99.90;;;;;;5028723;28;20344;-49
2020/12/26 20:53:12;;;;;;;1999.90;999.90;;;0.00;99.90;;;;;;5029220;28;20225;-48
2020/12/26 20:55:38;;;;;;;1999.90;999.90;;;0.00;99.90;;;;;;5026603;28;20191;-49
2020/12/26 20:58:03;;;;;;;1999.90;999.90;;;-0.10;99.90;;;;;;5025215;28;20187;-48
2020/12/26 21:00:29;;;;;;;1999.90;999.90;;;0.00;99.90;;;;;;5024843;28;20191;-48
2020/12/26 21:02:55;;;;;;;1999.90;999.90;;;0.00;99.90;;;;;;5026612;28;20763;-48
2020/12/26 21:05:20;;;;;;;1999.90;999.90;;;0.00;99.90;;;;;;5029297;28;20202;-49
2020/12/26 21:07:46;;;;;;;1999.90;999.90;;;0.00;99.90;;;;;;5032617;28;20186;-49
2020/12/26 21:10:12;;;;;;;1999.90;999.90;;;0.00;99.90;;;;;;5025233;28;20238;-48
2020/12/26 21:12:38;;;;;;;1999.90;999.90;;;0.00;99.90;;;;;;5027358;28;20194;-48
2020/12/26 21:15:06;;;;;;;1999.90;999.90;;;0.00;99.90;;;;;;5027773;28;20442;-48
2020/12/26 21:17:32;;;;;;;1999.90;999.90;;;0.00;99.90;;;;;;5026183;28;20202;-48
2020/12/26 21:19:58;;;;;;;1999.90;999.90;;;0.00;99.90;;;;;;5025262;28;20851;-48
2020/12/26 21:22:24;;;;;;;1999.90;999.90;;;0.00;99.90;;;;;;5026602;28;20230;-48
2020/12/26 21:24:49;;;;;;;1999.90;999.90;;;0.00;99.90;;;;;;5026730;28;20190;-48
2020/12/26 21:27:15;;;;;;;1999.90;999.90;;;0.00;99.90;;;;;;5027436;28;20191;-48
2020/12/26 21:29:41;;;;;;;1999.90;999.90;;;0.00;99.90;;;;;;5025245;28;20776;-49
2020/12/26 21:32:06;;;;;;;1999.90;999.90;;;0.00;99.90;;;;;;5024219;28;20202;-48
2020/12/26 21:34:32;;;;;;;1999.90;999.90;;;0.00;99.90;;;;;;5021664;28;20305;-49
2020/12/26 21:36:57;;;;;;;1999.90;999.90;;;0.00;99.90;;;;;;5023796;28;20192;-48
2020/12/26 21:39:23;;;;;;;1999.90;999.90;;;0.00;99.90;;;;;;5026564;28;20774;-48
2020/12/26 21:41:53;;;;;;;1999.90;999.90;;;0.00;99.90;;;;;;5025132;28;20290;-48
2020/12/26 21:44:18;;;;;;;1999.90;999.90;;;0.00;99.90;;;;;;5028176;28;20225;-47
2020/12/26 21:46:45;;;;;;;1999.90;999.90;;;0.00;99.90;;;;;;5026856;28;20754;-48
2020/12/26 21:49:11;;;;;;;1999.90;999.90;;;0.10;99.90;;;;;;5024808;28;20474;-48
2020/12/26 21:51:37;;;;;;;1999.90;999.90;;;0.00;99.90;;;;;;5027179;28;20971;-48
2020/12/26 21:54:03;;;;;;;1999.90;999.90;;;0.10;99.90;;;;;;5028038;28;20438;-48
2020/12/26 21:56:28;;;;;;;1999.90;999.90;;;0.10;99.90;;;;;;5024487;28;20194;-47
2020/12/26 21:58:54;;;;;;;1999.90;999.90;;;0.10;99.90;;;;;;5028668;28;20449;-48
2020/12/26 22:01:20;;;;;;;1999.90;999.90;;;0.10;99.90;;;;;;5026069;28;20551;-48
2020/12/26 22:03:46;;;;;;;1999.90;999.90;;;0.10;99.90;;;;;;5024613;28;20274;-48
2020/12/26 22:06:19;;;;;;;1999.90;999.90;;;0.10;99.90;;;;;;5027275;28;20460;-48
2020/12/26 22:08:45;;;;;;;1999.90;999.90;;;0.10;99.90;;;;;;5023312;28;20460;-48
2020/12/26 22:11:12;;;;;;;1999.90;999.90;;;0.10;99.90;;;;;;5022211;28;20434;-48
2020/12/26 22:13:37;;;;;;;1999.90;999.90;;;0.10;99.90;;;;;;5029166;28;20465;-48
2020/12/26 22:16:03;;;;;;;1999.90;999.90;;;0.10;99.90;;;;;;5031795;28;20473;-48
2020/12/26 22:18:29;;;;;;;1999.90;999.90;;;0.20;99.90;;;;;;5021400;28;20207;-51
2020/12/26 22:20:55;;;;;;;1999.90;999.90;;;0.10;99.90;;;;;;5024778;28;20196;-48
2020/12/26 22:23:21;;;;;;;1999.90;999.90;;;0.20;99.90;;;;;;5027848;28;20413;-48
2020/12/26 22:25:48;;;;;;;1999.90;999.90;;;0.20;99.90;;;;;;5026392;28;20187;-48
2020/12/26 22:28:14;;;;;;;1999.90;999.90;;;0.20;99.90;;;;;;5026294;28;20446;-48
2020/12/26 22:30:40;;;;;;;1999.90;999.90;;;0.20;99.90;;;;;;5025393;28;20556;-51
2020/12/26 22:33:05;;;;;;;1999.90;999.90;;;0.20;99.90;;;;;;5024981;28;20615;-48
2020/12/26 22:35:31;;;;;;;1999.90;999.90;;;0.20;99.90;;;;;;5022609;28;20196;-48
2020/12/26 22:37:57;;;;;;;1999.90;999.90;;;0.20;99.90;;;;;;5024732;28;20187;-53
2020/12/26 22:40:22;;;;;;;1999.90;999.90;;;0.20;99.90;;;;;;5028004;28;20182;-48
2020/12/26 22:42:48;;;;;;;1999.90;999.90;;;0.20;99.90;;;;;;5022352;28;20236;-48
2020/12/26 22:45:14;;;;;;;1999.90;999.90;;;0.20;99.90;;;;;;5026055;28;20203;-48
2020/12/26 22:47:39;;;;;;;1999.90;999.90;;;0.20;99.90;;;;;;5024560;28;20187;-48
2020/12/26 22:50:06;;;;;;;1999.90;999.90;;;0.20;99.90;;;;;;5027066;28;20950;-48
2020/12/26 22:52:31;;;;;;;1999.90;999.90;;;0.20;99.90;;;;;;5023857;28;20209;-48
2020/12/26 22:54:58;;;;;;;1999.90;999.90;;;0.20;99.90;;;;;;5034765;28;20445;-48
2020/12/26 22:57:24;;;;;;;1999.90;999.90;;;0.20;99.90;;;;;;5029190;28;20191;-47
2020/12/26 22:59:51;;;;;;;1999.90;999.90;;;0.20;99.90;;;;;;5027973;28;20457;-48
2020/12/26 23:02:17;;;;;;;1999.90;999.90;;;0.20;99.90;;;;;;5025094;28;20458;-48
2020/12/26 23:04:43;;;;;;;1999.90;999.90;;;0.20;99.90;;;;;;5028022;28;20926;-48
2020/12/26 23:07:09;;;;;;;1999.90;999.90;;;0.20;99.90;;;;;;5025244;28;21770;-49
2020/12/26 23:09:35;;;;;;;1999.90;999.90;;;0.20;99.90;;;;;;5026617;28;20511;-48
2020/12/26 23:12:01;;;;;;;1999.90;999.90;;;0.10;99.90;;;;;;5027221;28;20441;-48
2020/12/26 23:14:27;;;;;;;1999.90;999.90;;;0.20;99.90;;;;;;5027637;28;20437;-48
2020/12/26 23:16:53;;;;;;;1999.90;999.90;;;0.10;99.90;;;;;;5027121;28;20199;-45
2020/12/26 23:19:19;;;;;;;1999.90;999.90;;;0.20;99.90;;;;;;5020972;28;20226;-45
2020/12/26 23:21:48;;;;;;;1999.90;999.90;;;0.10;99.90;;;;;;5041517;28;20444;-46
2020/12/26 23:24:15;;;;;;;1999.90;999.90;;;0.10;99.90;;;;;;5031118;28;20187;-45
2020/12/26 23:26:41;;;;;;;1999.90;999.90;;;0.10;99.90;;;;;;5036411;28;20434;-46
2020/12/26 23:29:07;;;;;;;1999.90;999.90;;;0.20;99.90;;;;;;5026069;28;20829;-46
2020/12/26 23:31:32;;;;;;;1999.90;999.90;;;0.10;99.90;;;;;;5026760;28;20495;-46
2020/12/26 23:33:58;;;;;;;1999.90;999.90;;;0.10;99.90;;;;;;5021509;28;20234;-47
2020/12/26 23:36:24;;;;;;;1999.90;999.90;;;0.10;99.90;;;;;;5032386;28;20198;-47
2020/12/26 23:38:49;;;;;;;1999.90;999.90;;;0.10;99.90;;;;;;5025787;28;20600;-46
2020/12/26 23:41:16;;;;;;;1999.90;999.90;;;0.10;99.90;;;;;;5027486;28;20497;-46
2020/12/26 23:43:41;;;;;;;1999.90;999.90;;;0.10;99.90;;;;;;5027963;28;20186;-46
2020/12/26 23:46:08;;;;;;;1999.90;999.90;;;0.10;99.90;;;;;;5024942;28;20437;-47
2020/12/26 23:48:33;;;;;;;1999.90;999.90;;;0.10;99.90;;;;;;5026782;28;20206;-46
2020/12/26 23:50:59;;;;;;;1999.90;999.90;;;0.10;99.90;;;;;;5026912;28;20530;-47
2020/12/26 23:53:25;;;;;;;1999.90;999.90;;;0.00;99.90;;;;;;5042673;28;20187;-47
2020/12/26 23:55:50;;;;;;;1999.90;999.90;;;0.10;99.90;;;;;;5035089;28;20217;-47
2020/12/26 23:58:16;;;;;;;1999.90;999.90;;;0.10;99.90;;;;;;5033361;28;20493;-46
